sensor_id;sensor_type;location;lat;lon;timestamp;temperature;humidity
36654;DHT22;22650;49.350;20.898;2023-09-30T00:00:09;11.70;99.90
36654;DHT22;22650;49.350;20.898;2023-09-30T00:02:43;11.70;99.90
36654;DHT22;22650;49.350;20.898;2023-09-30T00:05:17;11.60;99.90
36654;DHT22;22650;49.350;20.898;2023-09-30T00:07:53;11.60;99.90
36654;DHT22;22650;49.350;20.898;2023-09-30T00:10:27;11.60;99.90
36654;DHT22;22650;49.350;20.898;2023-09-30T00:13:02;11.50;99.90
36654;DHT22;22650;49.350;20.898;2023-09-30T00:15:38;11.50;99.90
36654;DHT22;22650;49.350;20.898;2023-09-30T00:18:13;11.50;99.90
36654;DHT22;22650;49.350;20.898;2023-09-30T00:20:47;11.50;99.90
36654;DHT22;22650;49.350;20.898;2023-09-30T00:23:22;11.50;99.90
36654;DHT22;22650;49.350;20.898;2023-09-30T00:25:56;11.50;99.90
36654;DHT22;22650;49.350;20.898;2023-09-30T00:28:29;11.50;99.90
36654;DHT22;22650;49.350;20.898;2023-09-30T00:31:07;11.50;99.90
36654;DHT22;22650;49.350;20.898;2023-09-30T00:33:42;11.50;99.90
36654;DHT22;22650;49.350;20.898;2023-09-30T00:36:16;11.50;99.90
36654;DHT22;22650;49.350;20.898;2023-09-30T00:38:51;11.40;99.90
36654;DHT22;22650;49.350;20.898;2023-09-30T00:41:25;11.40;99.90
36654;DHT22;22650;49.350;20.898;2023-09-30T00:43:58;11.40;99.90
36654;DHT22;22650;49.350;20.898;2023-09-30T00:46:33;11.40;99.90
36654;DHT22;22650;49.350;20.898;2023-09-30T00:49:09;11.50;99.90
36654;DHT22;22650;49.350;20.898;2023-09-30T00:51:43;11.40;99.90
36654;DHT22;22650;49.350;20.898;2023-09-30T00:54:22;11.40;99.90
36654;DHT22;22650;49.350;20.898;2023-09-30T00:56:57;11.40;99.90
36654;DHT22;22650;49.350;20.898;2023-09-30T00:59:32;11.40;99.90
36654;DHT22;22650;49.350;20.898;2023-09-30T01:02:06;11.40;99.90
36654;DHT22;22650;49.350;20.898;2023-09-30T01:04:40;11.40;99.90
36654;DHT22;22650;49.350;20.898;2023-09-30T01:07:14;11.40;99.90
36654;DHT22;22650;49.350;20.898;2023-09-30T01:09:49;11.30;99.90
36654;DHT22;22650;49.350;20.898;2023-09-30T01:12:23;11.30;99.90
36654;DHT22;22650;49.350;20.898;2023-09-30T01:14:58;11.30;99.90
36654;DHT22;22650;49.350;20.898;2023-09-30T01:17:32;11.30;99.90
36654;DHT22;22650;49.350;20.898;2023-09-30T01:20:06;11.30;99.90
36654;DHT22;22650;49.350;20.898;2023-09-30T01:22:42;11.30;99.90
36654;DHT22;22650;49.350;20.898;2023-09-30T01:25:17;11.30;99.90
36654;DHT22;22650;49.350;20.898;2023-09-30T01:27:51;11.30;99.90
36654;DHT22;22650;49.350;20.898;2023-09-30T01:30:24;11.30;99.90
36654;DHT22;22650;49.350;20.898;2023-09-30T01:32:58;11.30;99.90
36654;DHT22;22650;49.350;20.898;2023-09-30T01:35:32;11.30;99.90
36654;DHT22;22650;49.350;20.898;2023-09-30T01:38:07;11.20;99.90
36654;DHT22;22650;49.350;20.898;2023-09-30T01:40:40;11.20;99.90
36654;DHT22;22650;49.350;20.898;2023-09-30T01:43:16;11.20;99.90
36654;DHT22;22650;49.350;20.898;2023-09-30T01:45:49;11.30;99.90
36654;DHT22;22650;49.350;20.898;2023-09-30T01:48:23;11.30;99.90
36654;DHT22;22650;49.350;20.898;2023-09-30T01:50:57;11.30;99.90
36654;DHT22;22650;49.350;20.898;2023-09-30T01:53:31;11.30;99.90
36654;DHT22;22650;49.350;20.898;2023-09-30T01:56:05;11.30;99.90
36654;DHT22;22650;49.350;20.898;2023-09-30T01:58:39;11.30;99.90
36654;DHT22;22650;49.350;20.898;2023-09-30T02:01:13;11.30;99.90
36654;DHT22;22650;49.350;20.898;2023-09-30T02:03:47;11.30;99.90
36654;DHT22;22650;49.350;20.898;2023-09-30T02:06:22;11.30;99.90
36654;DHT22;22650;49.350;20.898;2023-09-30T02:08:56;11.30;99.90
36654;DHT22;22650;49.350;20.898;2023-09-30T02:11:30;11.30;99.90
36654;DHT22;22650;49.350;20.898;2023-09-30T02:14:04;11.30;99.90
36654;DHT22;22650;49.350;20.898;2023-09-30T02:16:39;11.30;99.90
36654;DHT22;22650;49.350;20.898;2023-09-30T02:19:13;11.30;99.90
36654;DHT22;22650;49.350;20.898;2023-09-30T02:21:46;11.20;99.90
36654;DHT22;22650;49.350;20.898;2023-09-30T02:24:22;11.20;99.90
36654;DHT22;22650;49.350;20.898;2023-09-30T02:26:56;11.20;99.90
36654;DHT22;22650;49.350;20.898;2023-09-30T02:29:30;11.10;99.90
36654;DHT22;22650;49.350;20.898;2023-09-30T02:32:03;11.10;99.90
36654;DHT22;22650;49.350;20.898;2023-09-30T02:34:38;11.00;99.90
36654;DHT22;22650;49.350;20.898;2023-09-30T02:37:12;11.00;99.90
36654;DHT22;22650;49.350;20.898;2023-09-30T02:39:47;11.00;99.90
36654;DHT22;22650;49.350;20.898;2023-09-30T02:42:20;10.90;99.90
36654;DHT22;22650;49.350;20.898;2023-09-30T02:44:56;10.80;99.90
36654;DHT22;22650;49.350;20.898;2023-09-30T02:47:29;10.80;99.90
36654;DHT22;22650;49.350;20.898;2023-09-30T02:50:05;10.70;99.90
36654;DHT22;22650;49.350;20.898;2023-09-30T02:52:40;10.70;99.90
36654;DHT22;22650;49.350;20.898;2023-09-30T02:55:15;10.60;99.90
36654;DHT22;22650;49.350;20.898;2023-09-30T02:57:49;10.60;99.90
36654;DHT22;22650;49.350;20.898;2023-09-30T03:00:22;10.50;99.90
36654;DHT22;22650;49.350;20.898;2023-09-30T03:03:00;10.50;99.90
36654;DHT22;22650;49.350;20.898;2023-09-30T03:05:35;10.50;99.90
36654;DHT22;22650;49.350;20.898;2023-09-30T03:08:09;10.40;99.90
36654;DHT22;22650;49.350;20.898;2023-09-30T03:10:44;10.40;99.90
36654;DHT22;22650;49.350;20.898;2023-09-30T03:13:18;10.30;99.90
36654;DHT22;22650;49.350;20.898;2023-09-30T03:15:53;10.30;99.90
36654;DHT22;22650;49.350;20.898;2023-09-30T03:18:29;10.30;99.90
36654;DHT22;22650;49.350;20.898;2023-09-30T03:21:13;10.20;99.90
36654;DHT22;22650;49.350;20.898;2023-09-30T03:23:47;10.20;99.90
36654;DHT22;22650;49.350;20.898;2023-09-30T03:26:22;10.20;99.90
36654;DHT22;22650;49.350;20.898;2023-09-30T03:28:56;10.10;99.90
36654;DHT22;22650;49.350;20.898;2023-09-30T03:31:30;10.10;99.90
36654;DHT22;22650;49.350;20.898;2023-09-30T03:34:03;10.10;99.90
36654;DHT22;22650;49.350;20.898;2023-09-30T03:36:37;10.10;99.90
36654;DHT22;22650;49.350;20.898;2023-09-30T03:39:13;10.10;99.90
36654;DHT22;22650;49.350;20.898;2023-09-30T03:41:49;10.10;99.90
36654;DHT22;22650;49.350;20.898;2023-09-30T03:44:24;10.10;99.90
36654;DHT22;22650;49.350;20.898;2023-09-30T03:46:58;10.10;99.90
36654;DHT22;22650;49.350;20.898;2023-09-30T03:49:33;10.10;99.90
36654;DHT22;22650;49.350;20.898;2023-09-30T03:52:06;10.20;99.90
36654;DHT22;22650;49.350;20.898;2023-09-30T03:54:40;10.10;99.90
36654;DHT22;22650;49.350;20.898;2023-09-30T03:57:16;10.10;99.90
36654;DHT22;22650;49.350;20.898;2023-09-30T03:59:50;10.10;99.90
36654;DHT22;22650;49.350;20.898;2023-09-30T04:02:25;10.00;99.90
36654;DHT22;22650;49.350;20.898;2023-09-30T04:05:00;10.00;99.90
36654;DHT22;22650;49.350;20.898;2023-09-30T04:07:37;10.00;99.90
36654;DHT22;22650;49.350;20.898;2023-09-30T04:10:11;10.10;99.90
36654;DHT22;22650;49.350;20.898;2023-09-30T04:12:46;10.00;99.90
36654;DHT22;22650;49.350;20.898;2023-09-30T04:15:20;10.00;99.90
36654;DHT22;22650;49.350;20.898;2023-09-30T04:17:54;10.00;99.90
36654;DHT22;22650;49.350;20.898;2023-09-30T04:20:27;10.00;99.90
36654;DHT22;22650;49.350;20.898;2023-09-30T04:23:02;10.00;99.90
36654;DHT22;22650;49.350;20.898;2023-09-30T04:25:35;10.00;99.90
36654;DHT22;22650;49.350;20.898;2023-09-30T04:28:10;10.10;99.90
36654;DHT22;22650;49.350;20.898;2023-09-30T04:30:44;10.00;99.90
36654;DHT22;22650;49.350;20.898;2023-09-30T04:33:18;10.00;99.90
36654;DHT22;22650;49.350;20.898;2023-09-30T04:35:52;10.00;99.90
36654;DHT22;22650;49.350;20.898;2023-09-30T04:38:26;10.00;99.90
36654;DHT22;22650;49.350;20.898;2023-09-30T04:40:59;10.00;99.90
36654;DHT22;22650;49.350;20.898;2023-09-30T04:43:35;10.00;99.90
36654;DHT22;22650;49.350;20.898;2023-09-30T04:46:10;10.00;99.90
36654;DHT22;22650;49.350;20.898;2023-09-30T04:48:45;9.90;99.90
36654;DHT22;22650;49.350;20.898;2023-09-30T04:51:21;9.90;99.90
36654;DHT22;22650;49.350;20.898;2023-09-30T04:53:54;9.80;99.90
36654;DHT22;22650;49.350;20.898;2023-09-30T04:56:29;9.90;99.90
36654;DHT22;22650;49.350;20.898;2023-09-30T04:59:05;9.80;99.90
36654;DHT22;22650;49.350;20.898;2023-09-30T05:01:38;9.80;99.90
36654;DHT22;22650;49.350;20.898;2023-09-30T05:04:12;9.80;99.90
36654;DHT22;22650;49.350;20.898;2023-09-30T05:06:46;9.80;99.90
36654;DHT22;22650;49.350;20.898;2023-09-30T05:09:20;9.70;99.90
36654;DHT22;22650;49.350;20.898;2023-09-30T05:11:54;9.80;99.90
36654;DHT22;22650;49.350;20.898;2023-09-30T05:14:29;9.80;99.90
36654;DHT22;22650;49.350;20.898;2023-09-30T05:17:04;9.80;99.90
36654;DHT22;22650;49.350;20.898;2023-09-30T05:19:38;9.80;99.90
36654;DHT22;22650;49.350;20.898;2023-09-30T05:22:11;9.80;99.90
36654;DHT22;22650;49.350;20.898;2023-09-30T05:24:45;9.80;99.90
36654;DHT22;22650;49.350;20.898;2023-09-30T05:27:19;9.90;99.90
36654;DHT22;22650;49.350;20.898;2023-09-30T05:29:54;9.90;99.90
36654;DHT22;22650;49.350;20.898;2023-09-30T05:32:28;9.90;99.90
36654;DHT22;22650;49.350;20.898;2023-09-30T05:35:02;10.00;99.90
36654;DHT22;22650;49.350;20.898;2023-09-30T05:37:36;10.00;99.90
36654;DHT22;22650;49.350;20.898;2023-09-30T05:40:10;10.00;99.90
36654;DHT22;22650;49.350;20.898;2023-09-30T05:42:53;10.10;99.90
36654;DHT22;22650;49.350;20.898;2023-09-30T05:45:31;10.10;99.90
36654;DHT22;22650;49.350;20.898;2023-09-30T05:48:06;10.10;99.90
36654;DHT22;22650;49.350;20.898;2023-09-30T05:50:40;10.20;99.90
36654;DHT22;22650;49.350;20.898;2023-09-30T05:53:14;10.20;99.90
36654;DHT22;22650;49.350;20.898;2023-09-30T05:55:48;10.30;99.90
36654;DHT22;22650;49.350;20.898;2023-09-30T05:58:23;10.30;99.90
36654;DHT22;22650;49.350;20.898;2023-09-30T06:00:58;10.30;99.90
36654;DHT22;22650;49.350;20.898;2023-09-30T06:03:32;10.40;99.90
36654;DHT22;22650;49.350;20.898;2023-09-30T06:06:12;10.40;99.90
36654;DHT22;22650;49.350;20.898;2023-09-30T06:08:46;10.50;99.90
36654;DHT22;22650;49.350;20.898;2023-09-30T06:11:20;10.60;99.90
36654;DHT22;22650;49.350;20.898;2023-09-30T06:13:57;10.60;99.90
36654;DHT22;22650;49.350;20.898;2023-09-30T06:16:32;10.70;99.90
36654;DHT22;22650;49.350;20.898;2023-09-30T06:19:07;10.70;99.90
36654;DHT22;22650;49.350;20.898;2023-09-30T06:21:41;10.80;99.90
36654;DHT22;22650;49.350;20.898;2023-09-30T06:24:15;10.80;99.90
36654;DHT22;22650;49.350;20.898;2023-09-30T06:26:49;10.80;99.90
36654;DHT22;22650;49.350;20.898;2023-09-30T06:29:36;10.90;99.90
36654;DHT22;22650;49.350;20.898;2023-09-30T06:32:14;11.00;99.90
36654;DHT22;22650;49.350;20.898;2023-09-30T06:34:47;11.00;99.90
36654;DHT22;22650;49.350;20.898;2023-09-30T06:37:21;11.10;99.90
36654;DHT22;22650;49.350;20.898;2023-09-30T06:39:55;11.10;99.90
36654;DHT22;22650;49.350;20.898;2023-09-30T06:42:29;11.20;99.90
36654;DHT22;22650;49.350;20.898;2023-09-30T06:45:03;11.30;99.90
36654;DHT22;22650;49.350;20.898;2023-09-30T06:47:40;11.40;99.90
36654;DHT22;22650;49.350;20.898;2023-09-30T06:50:14;11.40;99.90
36654;DHT22;22650;49.350;20.898;2023-09-30T06:52:49;11.50;99.90
36654;DHT22;22650;49.350;20.898;2023-09-30T06:55:23;11.60;99.90
36654;DHT22;22650;49.350;20.898;2023-09-30T06:57:58;11.60;99.90
36654;DHT22;22650;49.350;20.898;2023-09-30T07:00:33;11.60;99.90
36654;DHT22;22650;49.350;20.898;2023-09-30T07:03:09;11.70;99.90
36654;DHT22;22650;49.350;20.898;2023-09-30T07:05:42;11.70;99.90
36654;DHT22;22650;49.350;20.898;2023-09-30T07:08:17;11.80;99.90
36654;DHT22;22650;49.350;20.898;2023-09-30T07:10:50;11.90;99.90
36654;DHT22;22650;49.350;20.898;2023-09-30T07:13:25;11.90;99.90
36654;DHT22;22650;49.350;20.898;2023-09-30T07:15:58;12.00;99.90
36654;DHT22;22650;49.350;20.898;2023-09-30T07:18:33;12.10;99.90
36654;DHT22;22650;49.350;20.898;2023-09-30T07:21:07;12.10;99.90
36654;DHT22;22650;49.350;20.898;2023-09-30T07:23:41;12.20;99.90
36654;DHT22;22650;49.350;20.898;2023-09-30T07:26:14;12.30;99.90
36654;DHT22;22650;49.350;20.898;2023-09-30T07:28:48;12.30;99.90
36654;DHT22;22650;49.350;20.898;2023-09-30T07:31:22;12.40;99.90
36654;DHT22;22650;49.350;20.898;2023-09-30T07:33:57;12.40;99.90
36654;DHT22;22650;49.350;20.898;2023-09-30T07:36:31;12.50;99.90
36654;DHT22;22650;49.350;20.898;2023-09-30T07:39:05;12.60;99.90
36654;DHT22;22650;49.350;20.898;2023-09-30T07:41:38;12.70;99.90
36654;DHT22;22650;49.350;20.898;2023-09-30T07:44:12;12.80;99.90
36654;DHT22;22650;49.350;20.898;2023-09-30T07:46:46;12.90;99.90
36654;DHT22;22650;49.350;20.898;2023-09-30T07:49:21;12.90;99.90
36654;DHT22;22650;49.350;20.898;2023-09-30T07:51:56;13.00;99.90
36654;DHT22;22650;49.350;20.898;2023-09-30T07:54:29;13.10;99.90
36654;DHT22;22650;49.350;20.898;2023-09-30T07:57:03;13.10;99.90
36654;DHT22;22650;49.350;20.898;2023-09-30T07:59:37;13.20;99.90
36654;DHT22;22650;49.350;20.898;2023-09-30T08:02:10;13.20;99.90
36654;DHT22;22650;49.350;20.898;2023-09-30T08:04:45;13.30;99.90
36654;DHT22;22650;49.350;20.898;2023-09-30T08:07:19;13.40;99.90
36654;DHT22;22650;49.350;20.898;2023-09-30T08:09:53;13.50;99.90
36654;DHT22;22650;49.350;20.898;2023-09-30T08:12:27;13.70;99.90
36654;DHT22;22650;49.350;20.898;2023-09-30T08:15:01;13.80;99.90
36654;DHT22;22650;49.350;20.898;2023-09-30T08:17:37;14.00;99.90
36654;DHT22;22650;49.350;20.898;2023-09-30T08:20:13;14.20;99.90
36654;DHT22;22650;49.350;20.898;2023-09-30T08:22:46;14.30;99.90
36654;DHT22;22650;49.350;20.898;2023-09-30T08:25:20;14.40;99.90
36654;DHT22;22650;49.350;20.898;2023-09-30T08:27:54;14.50;99.90
36654;DHT22;22650;49.350;20.898;2023-09-30T08:30:27;14.70;99.90
36654;DHT22;22650;49.350;20.898;2023-09-30T08:33:02;14.90;99.90
36654;DHT22;22650;49.350;20.898;2023-09-30T08:35:41;15.10;99.90
36654;DHT22;22650;49.350;20.898;2023-09-30T08:38:15;15.20;99.90
36654;DHT22;22650;49.350;20.898;2023-09-30T08:40:51;15.40;99.90
36654;DHT22;22650;49.350;20.898;2023-09-30T08:43:26;15.50;99.90
36654;DHT22;22650;49.350;20.898;2023-09-30T08:46:03;15.60;99.90
36654;DHT22;22650;49.350;20.898;2023-09-30T08:48:38;15.80;99.90
36654;DHT22;22650;49.350;20.898;2023-09-30T08:51:13;15.90;99.90
36654;DHT22;22650;49.350;20.898;2023-09-30T08:53:47;16.10;99.90
36654;DHT22;22650;49.350;20.898;2023-09-30T08:56:24;16.20;99.90
36654;DHT22;22650;49.350;20.898;2023-09-30T08:58:59;16.30;99.90
36654;DHT22;22650;49.350;20.898;2023-09-30T09:01:34;16.50;99.90
36654;DHT22;22650;49.350;20.898;2023-09-30T09:04:08;16.60;99.90
36654;DHT22;22650;49.350;20.898;2023-09-30T09:06:43;16.70;99.90
36654;DHT22;22650;49.350;20.898;2023-09-30T09:09:18;16.90;99.90
36654;DHT22;22650;49.350;20.898;2023-09-30T09:11:58;17.00;99.90
36654;DHT22;22650;49.350;20.898;2023-09-30T09:14:41;17.10;99.90
36654;DHT22;22650;49.350;20.898;2023-09-30T09:17:15;17.20;99.90
36654;DHT22;22650;49.350;20.898;2023-09-30T09:19:59;17.20;99.90
36654;DHT22;22650;49.350;20.898;2023-09-30T09:22:42;17.30;99.90
36654;DHT22;22650;49.350;20.898;2023-09-30T09:25:16;17.40;99.90
36654;DHT22;22650;49.350;20.898;2023-09-30T09:27:50;17.50;99.90
36654;DHT22;22650;49.350;20.898;2023-09-30T09:30:25;17.50;99.90
36654;DHT22;22650;49.350;20.898;2023-09-30T09:33:00;17.60;99.90
36654;DHT22;22650;49.350;20.898;2023-09-30T09:35:35;17.70;99.90
36654;DHT22;22650;49.350;20.898;2023-09-30T09:38:10;17.80;99.90
36654;DHT22;22650;49.350;20.898;2023-09-30T09:40:43;17.80;99.90
36654;DHT22;22650;49.350;20.898;2023-09-30T09:43:17;18.00;99.90
36654;DHT22;22650;49.350;20.898;2023-09-30T09:45:51;18.10;99.90
36654;DHT22;22650;49.350;20.898;2023-09-30T09:48:25;18.20;99.90
36654;DHT22;22650;49.350;20.898;2023-09-30T09:50:59;18.20;99.90
36654;DHT22;22650;49.350;20.898;2023-09-30T09:53:36;18.30;99.90
36654;DHT22;22650;49.350;20.898;2023-09-30T09:56:12;18.40;99.90
36654;DHT22;22650;49.350;20.898;2023-09-30T09:58:47;18.50;99.90
36654;DHT22;22650;49.350;20.898;2023-09-30T10:01:22;18.60;99.90
36654;DHT22;22650;49.350;20.898;2023-09-30T10:03:56;18.60;99.90
36654;DHT22;22650;49.350;20.898;2023-09-30T10:06:31;18.70;99.90
36654;DHT22;22650;49.350;20.898;2023-09-30T10:09:13;18.80;99.90
36654;DHT22;22650;49.350;20.898;2023-09-30T10:11:48;18.90;99.90
36654;DHT22;22650;49.350;20.898;2023-09-30T10:14:30;18.90;99.90
36654;DHT22;22650;49.350;20.898;2023-09-30T10:17:05;19.00;99.90
36654;DHT22;22650;49.350;20.898;2023-09-30T10:20:06;19.00;99.90
36654;DHT22;22650;49.350;20.898;2023-09-30T10:22:40;19.00;99.90
36654;DHT22;22650;49.350;20.898;2023-09-30T10:25:35;19.00;99.90
36654;DHT22;22650;49.350;20.898;2023-09-30T10:31:16;19.10;99.90
36654;DHT22;22650;49.350;20.898;2023-09-30T10:34:20;19.10;99.90
36654;DHT22;22650;49.350;20.898;2023-09-30T10:36:54;19.10;99.90
36654;DHT22;22650;49.350;20.898;2023-09-30T10:39:53;19.20;99.90
36654;DHT22;22650;49.350;20.898;2023-09-30T10:42:49;19.20;99.90
36654;DHT22;22650;49.350;20.898;2023-09-30T10:45:51;19.20;99.90
36654;DHT22;22650;49.350;20.898;2023-09-30T10:48:37;19.10;99.90
36654;DHT22;22650;49.350;20.898;2023-09-30T10:51:16;19.10;99.90
36654;DHT22;22650;49.350;20.898;2023-09-30T10:53:54;19.10;99.90
36654;DHT22;22650;49.350;20.898;2023-09-30T10:56:33;19.10;99.90
36654;DHT22;22650;49.350;20.898;2023-09-30T10:59:08;19.20;99.90
36654;DHT22;22650;49.350;20.898;2023-09-30T11:01:41;19.20;99.90
36654;DHT22;22650;49.350;20.898;2023-09-30T11:04:16;19.20;99.90
36654;DHT22;22650;49.350;20.898;2023-09-30T11:06:50;19.20;99.90
36654;DHT22;22650;49.350;20.898;2023-09-30T11:09:24;19.20;99.90
36654;DHT22;22650;49.350;20.898;2023-09-30T11:11:58;19.20;99.90
36654;DHT22;22650;49.350;20.898;2023-09-30T11:14:33;19.20;99.90
36654;DHT22;22650;49.350;20.898;2023-09-30T11:17:07;19.10;99.90
36654;DHT22;22650;49.350;20.898;2023-09-30T11:19:46;19.10;99.90
36654;DHT22;22650;49.350;20.898;2023-09-30T11:22:21;19.10;99.90
36654;DHT22;22650;49.350;20.898;2023-09-30T11:24:55;19.10;99.90
36654;DHT22;22650;49.350;20.898;2023-09-30T11:27:29;19.10;99.90
36654;DHT22;22650;49.350;20.898;2023-09-30T11:30:06;19.10;99.90
36654;DHT22;22650;49.350;20.898;2023-09-30T11:32:40;19.10;99.90
36654;DHT22;22650;49.350;20.898;2023-09-30T11:35:22;19.00;99.90
36654;DHT22;22650;49.350;20.898;2023-09-30T11:37:56;19.00;99.90
36654;DHT22;22650;49.350;20.898;2023-09-30T11:40:30;19.00;99.90
36654;DHT22;22650;49.350;20.898;2023-09-30T11:43:09;19.00;99.90
36654;DHT22;22650;49.350;20.898;2023-09-30T11:45:46;18.90;99.90
36654;DHT22;22650;49.350;20.898;2023-09-30T11:48:20;18.90;99.90
36654;DHT22;22650;49.350;20.898;2023-09-30T11:50:54;18.80;99.90
36654;DHT22;22650;49.350;20.898;2023-09-30T11:53:29;18.80;99.90
36654;DHT22;22650;49.350;20.898;2023-09-30T11:56:03;18.70;99.90
36654;DHT22;22650;49.350;20.898;2023-09-30T11:58:39;18.70;99.90
36654;DHT22;22650;49.350;20.898;2023-09-30T12:01:14;18.80;99.90
36654;DHT22;22650;49.350;20.898;2023-09-30T12:03:48;18.80;99.90
36654;DHT22;22650;49.350;20.898;2023-09-30T12:06:26;18.70;99.90
36654;DHT22;22650;49.350;20.898;2023-09-30T12:09:00;18.70;99.90
36654;DHT22;22650;49.350;20.898;2023-09-30T12:11:35;18.60;99.90
36654;DHT22;22650;49.350;20.898;2023-09-30T12:14:08;18.60;99.90
36654;DHT22;22650;49.350;20.898;2023-09-30T12:16:43;18.60;99.90
36654;DHT22;22650;49.350;20.898;2023-09-30T12:19:18;18.50;99.90
36654;DHT22;22650;49.350;20.898;2023-09-30T12:21:51;18.50;99.90
36654;DHT22;22650;49.350;20.898;2023-09-30T12:24:25;18.50;99.90
36654;DHT22;22650;49.350;20.898;2023-09-30T12:26:59;18.40;99.90
36654;DHT22;22650;49.350;20.898;2023-09-30T12:29:34;18.40;99.90
36654;DHT22;22650;49.350;20.898;2023-09-30T12:32:12;18.50;99.90
36654;DHT22;22650;49.350;20.898;2023-09-30T12:34:46;18.50;99.90
36654;DHT22;22650;49.350;20.898;2023-09-30T12:37:20;18.50;99.90
36654;DHT22;22650;49.350;20.898;2023-09-30T12:39:53;18.50;99.90
36654;DHT22;22650;49.350;20.898;2023-09-30T12:42:27;18.50;99.90
36654;DHT22;22650;49.350;20.898;2023-09-30T12:45:02;18.50;99.90
36654;DHT22;22650;49.350;20.898;2023-09-30T12:47:39;18.40;99.90
36654;DHT22;22650;49.350;20.898;2023-09-30T12:50:12;18.40;99.90
36654;DHT22;22650;49.350;20.898;2023-09-30T12:52:46;18.40;99.90
36654;DHT22;22650;49.350;20.898;2023-09-30T12:55:20;18.40;99.90
36654;DHT22;22650;49.350;20.898;2023-09-30T12:57:53;18.40;99.90
36654;DHT22;22650;49.350;20.898;2023-09-30T13:00:27;18.40;99.90
36654;DHT22;22650;49.350;20.898;2023-09-30T13:03:07;18.30;99.90
36654;DHT22;22650;49.350;20.898;2023-09-30T13:05:41;18.30;99.90
36654;DHT22;22650;49.350;20.898;2023-09-30T13:08:15;18.30;99.90
36654;DHT22;22650;49.350;20.898;2023-09-30T13:10:49;18.30;99.90
36654;DHT22;22650;49.350;20.898;2023-09-30T13:13:24;18.30;99.90
36654;DHT22;22650;49.350;20.898;2023-09-30T13:15:58;18.30;99.90
36654;DHT22;22650;49.350;20.898;2023-09-30T13:18:33;18.30;99.90
36654;DHT22;22650;49.350;20.898;2023-09-30T13:21:08;18.30;99.90
36654;DHT22;22650;49.350;20.898;2023-09-30T13:23:44;18.30;99.90
36654;DHT22;22650;49.350;20.898;2023-09-30T13:26:18;18.30;99.90
36654;DHT22;22650;49.350;20.898;2023-09-30T13:28:51;18.30;99.90
36654;DHT22;22650;49.350;20.898;2023-09-30T13:31:25;18.30;99.90
36654;DHT22;22650;49.350;20.898;2023-09-30T13:34:00;18.20;99.90
36654;DHT22;22650;49.350;20.898;2023-09-30T13:36:35;18.20;99.90
36654;DHT22;22650;49.350;20.898;2023-09-30T13:39:09;18.10;99.90
36654;DHT22;22650;49.350;20.898;2023-09-30T13:41:45;18.10;99.90
36654;DHT22;22650;49.350;20.898;2023-09-30T13:44:19;18.10;99.90
36654;DHT22;22650;49.350;20.898;2023-09-30T13:46:53;18.10;99.90
36654;DHT22;22650;49.350;20.898;2023-09-30T13:49:28;18.10;99.90
36654;DHT22;22650;49.350;20.898;2023-09-30T13:52:02;18.00;99.90
36654;DHT22;22650;49.350;20.898;2023-09-30T13:54:37;18.00;99.90
36654;DHT22;22650;49.350;20.898;2023-09-30T13:57:12;17.90;99.90
36654;DHT22;22650;49.350;20.898;2023-09-30T13:59:46;17.80;99.90
36654;DHT22;22650;49.350;20.898;2023-09-30T14:02:21;17.80;99.90
36654;DHT22;22650;49.350;20.898;2023-09-30T14:04:56;17.70;99.90
36654;DHT22;22650;49.350;20.898;2023-09-30T14:07:30;17.70;99.90
36654;DHT22;22650;49.350;20.898;2023-09-30T14:10:04;17.70;99.90
36654;DHT22;22650;49.350;20.898;2023-09-30T14:12:38;17.60;99.90
36654;DHT22;22650;49.350;20.898;2023-09-30T14:15:12;17.60;99.90
36654;DHT22;22650;49.350;20.898;2023-09-30T14:17:47;17.60;99.90
36654;DHT22;22650;49.350;20.898;2023-09-30T14:20:22;17.60;99.90
36654;DHT22;22650;49.350;20.898;2023-09-30T14:22:56;17.60;99.90
36654;DHT22;22650;49.350;20.898;2023-09-30T14:25:30;17.50;99.90
36654;DHT22;22650;49.350;20.898;2023-09-30T14:28:04;17.60;99.90
36654;DHT22;22650;49.350;20.898;2023-09-30T14:30:38;17.60;99.90
36654;DHT22;22650;49.350;20.898;2023-09-30T14:33:11;17.60;99.90
36654;DHT22;22650;49.350;20.898;2023-09-30T14:35:46;17.50;99.90
36654;DHT22;22650;49.350;20.898;2023-09-30T14:38:22;17.50;99.90
36654;DHT22;22650;49.350;20.898;2023-09-30T14:40:55;17.50;99.90
36654;DHT22;22650;49.350;20.898;2023-09-30T14:43:29;17.50;99.90
36654;DHT22;22650;49.350;20.898;2023-09-30T14:46:02;17.40;99.90
36654;DHT22;22650;49.350;20.898;2023-09-30T14:48:36;17.40;99.90
36654;DHT22;22650;49.350;20.898;2023-09-30T14:51:11;17.40;99.90
36654;DHT22;22650;49.350;20.898;2023-09-30T14:53:45;17.40;99.90
36654;DHT22;22650;49.350;20.898;2023-09-30T14:56:19;17.40;99.90
36654;DHT22;22650;49.350;20.898;2023-09-30T14:58:52;17.30;99.90
36654;DHT22;22650;49.350;20.898;2023-09-30T15:01:26;17.30;99.90
36654;DHT22;22650;49.350;20.898;2023-09-30T15:04:00;17.20;99.90
36654;DHT22;22650;49.350;20.898;2023-09-30T15:06:35;17.20;99.90
36654;DHT22;22650;49.350;20.898;2023-09-30T15:09:09;17.20;99.90
36654;DHT22;22650;49.350;20.898;2023-09-30T15:11:44;17.20;99.90
36654;DHT22;22650;49.350;20.898;2023-09-30T15:14:17;17.10;99.90
36654;DHT22;22650;49.350;20.898;2023-09-30T15:16:51;17.00;99.90
36654;DHT22;22650;49.350;20.898;2023-09-30T15:19:25;17.00;99.90
36654;DHT22;22650;49.350;20.898;2023-09-30T15:22:00;16.90;99.90
36654;DHT22;22650;49.350;20.898;2023-09-30T15:24:33;16.90;99.90
36654;DHT22;22650;49.350;20.898;2023-09-30T15:27:07;16.80;99.90
36654;DHT22;22650;49.350;20.898;2023-09-30T15:29:41;16.80;99.90
36654;DHT22;22650;49.350;20.898;2023-09-30T15:32:14;16.70;99.90
36654;DHT22;22650;49.350;20.898;2023-09-30T15:34:49;16.70;99.90
36654;DHT22;22650;49.350;20.898;2023-09-30T15:37:23;16.70;99.90
36654;DHT22;22650;49.350;20.898;2023-09-30T15:39:57;16.70;99.90
36654;DHT22;22650;49.350;20.898;2023-09-30T15:42:31;16.60;99.90
36654;DHT22;22650;49.350;20.898;2023-09-30T15:45:06;16.70;99.90
36654;DHT22;22650;49.350;20.898;2023-09-30T15:47:40;16.70;99.90
36654;DHT22;22650;49.350;20.898;2023-09-30T15:50:13;16.70;99.90
36654;DHT22;22650;49.350;20.898;2023-09-30T15:52:49;16.70;99.90
36654;DHT22;22650;49.350;20.898;2023-09-30T15:55:22;16.70;99.90
36654;DHT22;22650;49.350;20.898;2023-09-30T15:57:56;16.70;99.90
36654;DHT22;22650;49.350;20.898;2023-09-30T16:00:30;16.70;99.90
36654;DHT22;22650;49.350;20.898;2023-09-30T16:03:04;16.60;99.90
36654;DHT22;22650;49.350;20.898;2023-09-30T16:05:38;16.60;99.90
36654;DHT22;22650;49.350;20.898;2023-09-30T16:08:14;16.50;99.90